Time,TemperatureF,DewpointF,PressureIn,WindDirection,WindDirectionDegrees,WindSpeedMPH,WindSpeedGustMPH,Humidity,HourlyPrecipIn,Conditions,Clouds,dailyrainin,SolarRadiationWatts/m^2,SoftwareType,DateUTC
2013-01-29 02:00:00,37.0,37.0,29.62,NW,319,12.0,-999.0,100,-99.99,,,-99.99,0.010000,,2013-01-29 08:00:00,
2013-01-29 02:52:00,37.0,37.0,29.62,NW,319,12.0,-999.0,100,-99.99,,,-99.99,0.010000,,2013-01-29 08:52:00,
2013-01-29 03:00:00,35.0,35.0,29.64,NW,320,13.0,-999.0,100,-99.99,,,-99.99,0.010000,,2013-01-29 09:00:00,
2013-01-29 03:52:00,35.0,35.0,29.64,NW,320,13.0,-999.0,100,-99.99,,,-99.99,0.010000,,2013-01-29 09:52:00,
2013-01-29 04:00:00,34.0,34.0,29.64,NNW,334,8.0,-999.0,100,-99.99,,,-99.99,0.000000,,2013-01-29 10:00:00,
2013-01-29 04:52:00,34.0,34.0,29.64,NNW,334,8.0,-999.0,100,-99.99,,,-99.99,0.000000,,2013-01-29 10:52:00,
2013-01-29 05:00:00,33.0,33.0,29.65,NW,321,9.0,-999.0,100,-99.99,,,-99.99,0.000000,,2013-01-29 11:00:00,
2013-01-29 05:53:00,33.0,33.0,29.65,NW,321,9.0,-999.0,100,-99.99,,,-99.99,0.000000,,2013-01-29 11:53:00,
2013-01-29 06:00:00,33.0,33.0,29.63,NNW,336,9.0,-999.0,100,-99.99,,,-99.99,0.000000,,2013-01-29 12:00:00,
2013-01-29 06:53:00,33.0,33.0,29.63,NNW,336,9.0,-999.0,100,-99.99,,,-99.99,0.000000,,2013-01-29 12:53:00,
2013-01-29 09:00:00,32.0,32.0,29.68,NW,323,9.0,-999.0,98,-99.99,,,-99.99,6.660000,,2013-01-29 15:00:00,
2013-01-29 09:53:00,32.0,32.0,29.68,NW,323,9.0,-999.0,98,-99.99,,,-99.99,6.660000,,2013-01-29 15:53:00,
2013-01-29 10:00:00,32.0,31.0,29.67,NNW,345,11.0,-999.0,95,-99.99,,,-99.99,30.450001,,2013-01-29 16:00:00,
2013-01-29 10:53:00,32.0,31.0,29.67,NNW,345,11.0,-999.0,95,-99.99,,,-99.99,30.450001,,2013-01-29 16:53:00,
2013-01-29 11:00:00,33.0,31.0,29.67,North,351,11.0,-999.0,92,-99.99,,,-99.99,62.369999,,2013-01-29 17:00:00,
2013-01-29 11:52:00,33.0,31.0,29.67,North,351,11.0,-999.0,92,-99.99,,,-99.99,62.369999,,2013-01-29 17:52:00,
2013-01-29 12:00:00,34.0,31.0,29.66,North,358,12.0,-999.0,91,-99.99,,,-99.99,71.300003,,2013-01-29 18:00:00,
2013-01-29 12:52:00,34.0,31.0,29.66,North,358,12.0,-999.0,91,-99.99,,,-99.99,71.300003,,2013-01-29 18:52:00,
2013-01-29 13:00:00,33.0,31.0,29.64,North,356,12.0,-999.0,93,-99.99,,,-99.99,71.400002,,2013-01-29 19:00:00,
2013-01-29 13:52:00,33.0,31.0,29.64,North,356,12.0,-999.0,93,-99.99,,,-99.99,71.400002,,2013-01-29 19:52:00,
2013-01-29 14:00:00,33.0,31.0,29.62,North,354,13.0,-999.0,93,-99.99,,,-99.99,73.690002,,2013-01-29 20:00:00,
2013-01-29 14:53:00,33.0,31.0,29.62,North,354,13.0,-999.0,93,-99.99,,,-99.99,73.690002,,2013-01-29 20:53:00,
2013-01-29 15:00:00,33.0,31.0,29.61,North,3,13.0,-999.0,92,-99.99,,,-99.99,46.049999,,2013-01-29 21:00:00,
2013-01-29 15:53:00,33.0,31.0,29.61,North,3,13.0,-999.0,92,-99.99,,,-99.99,46.049999,,2013-01-29 21:53:00,
2013-01-29 16:00:00,33.0,31.0,29.64,North,8,12.0,-999.0,90,-99.99,,,-99.99,32.270000,,2013-01-29 22:00:00,
2013-01-29 16:53:00,33.0,31.0,29.64,North,8,12.0,-999.0,90,-99.99,,,-99.99,32.270000,,2013-01-29 22:53:00,
2013-01-29 17:00:00,34.0,31.0,29.63,North,7,12.0,-999.0,89,-99.99,,,-99.99,13.310000,,2013-01-29 23:00:00,
2013-01-29 17:53:00,34.0,31.0,29.63,North,7,12.0,-999.0,89,-99.99,,,-99.99,13.310000,,2013-01-29 23:53:00,
2013-01-29 18:00:00,34.0,31.0,29.60,North,7,9.0,-999.0,91,-99.99,,,-99.99,4.160000,,2013-01-30 00:00:00,
2013-01-29 18:53:00,34.0,31.0,29.60,North,7,9.0,-999.0,91,-99.99,,,-99.99,4.160000,,2013-01-30 00:53:00,
2013-01-29 19:00:00,34.0,31.0,29.65,North,9,11.0,-999.0,91,-99.99,,,-99.99,0.000000,,2013-01-30 01:00:00,
2013-01-29 19:52:00,34.0,31.0,29.65,North,9,11.0,-999.0,91,-99.99,,,-99.99,0.000000,,2013-01-30 01:52:00,
2013-01-29 20:00:00,33.0,33.0,29.66,North,350,10.0,-999.0,100,-99.99,,,-99.99,0.000000,,2013-01-30 02:00:00,
2013-01-29 20:53:00,33.0,33.0,29.66,North,350,10.0,-999.0,100,-99.99,,,-99.99,0.000000,,2013-01-30 02:53:00,
2013-01-29 21:00:00,32.0,32.0,29.61,NNW,346,13.0,-999.0,100,-99.99,,,-99.99,0.010000,,2013-01-30 03:00:00,
2013-01-29 21:52:00,32.0,32.0,29.61,NNW,346,13.0,-999.0,100,-99.99,,,-99.99,0.010000,,2013-01-30 03:52:00,
2013-01-29 22:00:00,32.0,32.0,29.65,North,354,16.0,-999.0,100,-99.99,,,-99.99,0.020000,,2013-01-30 04:00:00,
2013-01-29 22:52:00,32.0,32.0,29.65,North,354,16.0,-999.0,100,-99.99,,,-99.99,0.020000,,2013-01-30 04:52:00,
2013-01-29 23:00:00,32.0,32.0,29.66,North,349,16.0,-999.0,100,-99.99,,,-99.99,0.000000,,2013-01-30 05:00:00,
2013-01-29 23:52:00,32.0,32.0,29.66,North,349,16.0,-999.0,100,-99.99,,,-99.99,0.000000,,2013-01-30 05:52:00,